createdAt,value
2018-03-16T00:01:37.932Z,8.59
2018-03-16T00:04:04.186Z,8.70
2018-03-16T00:06:30.601Z,8.60
2018-03-16T00:08:56.842Z,8.56
2018-03-16T00:11:23.065Z,8.71
2018-03-16T00:13:49.365Z,8.75
2018-03-16T00:16:15.624Z,8.87
2018-03-16T00:18:41.957Z,8.97
2018-03-16T00:21:08.232Z,9.00
2018-03-16T00:23:34.468Z,9.02
2018-03-16T00:26:00.921Z,8.99
2018-03-16T00:28:27.152Z,9.00
2018-03-16T00:30:53.407Z,9.03
2018-03-16T00:33:19.658Z,9.04
2018-03-16T00:35:45.906Z,9.01
2018-03-16T00:38:12.372Z,9.06
2018-03-16T00:40:38.633Z,9.14
2018-03-16T00:43:04.857Z,9.17
2018-03-16T00:45:31.253Z,9.19
2018-03-16T00:47:57.512Z,9.16
2018-03-16T00:50:23.840Z,9.09
2018-03-16T00:52:50.146Z,9.06
2018-03-16T00:55:16.368Z,9.14
2018-03-16T00:57:42.815Z,9.16
2018-03-16T01:00:09.095Z,9.15
2018-03-16T01:02:35.369Z,9.13
2018-03-16T01:05:01.606Z,9.16
2018-03-16T01:07:27.868Z,9.20
2018-03-16T01:09:54.359Z,9.19
2018-03-16T01:12:20.589Z,9.16
2018-03-16T01:14:46.829Z,9.25
2018-03-16T01:17:13.167Z,9.28
2018-03-16T01:19:39.429Z,9.31
2018-03-16T01:22:05.761Z,9.29
2018-03-16T01:24:32.021Z,9.23
2018-03-16T01:26:58.244Z,9.20
2018-03-16T01:29:24.693Z,9.18
2018-03-16T01:31:50.916Z,9.17
2018-03-16T01:34:17.145Z,9.14
2018-03-16T01:36:43.392Z,9.11
2018-03-16T01:39:09.617Z,9.11
2018-03-16T01:41:35.991Z,9.07
2018-03-16T01:44:02.233Z,9.05
2018-03-16T01:46:28.474Z,9.10
2018-03-16T01:48:54.908Z,9.05
2018-03-16T01:51:21.156Z,9.00
2018-03-16T01:53:47.376Z,9.04
2018-03-16T01:56:13.624Z,9.08
2018-03-16T01:58:39.840Z,9.07
2018-03-16T02:01:06.288Z,9.04
2018-03-16T02:03:32.600Z,9.05
2018-03-16T02:05:58.848Z,9.07
2018-03-16T02:08:25.196Z,9.06
2018-03-16T02:10:51.440Z,9.02
2018-03-16T02:13:17.785Z,8.97
2018-03-16T02:15:44.040Z,8.95
2018-03-16T02:18:10.280Z,8.94
2018-03-16T02:20:36.732Z,9.01
2018-03-16T02:23:03.004Z,8.99
2018-03-16T02:25:29.239Z,8.95
2018-03-16T02:27:55.492Z,8.97
2018-03-16T02:30:21.721Z,9.01
2018-03-16T02:32:48.075Z,9.00
2018-03-16T02:35:14.324Z,8.98
2018-03-16T02:37:40.621Z,9.00
2018-03-16T02:40:06.973Z,9.02
2018-03-16T02:42:33.196Z,9.03
2018-03-16T02:44:59.448Z,9.02
2018-03-16T02:47:25.677Z,9.03
2018-03-16T02:49:51.921Z,9.01
2018-03-16T02:52:18.297Z,9.01
2018-03-16T02:54:44.553Z,9.06
2018-03-16T02:57:10.780Z,9.04
2018-03-16T02:59:38.278Z,8.99
2018-03-16T03:02:04.524Z,8.98
2018-03-16T03:04:31.002Z,8.93
2018-03-16T03:06:57.234Z,8.94
2018-03-16T03:09:23.480Z,8.95
2018-03-16T03:11:49.708Z,8.96
2018-03-16T03:14:15.928Z,8.96
2018-03-16T03:16:42.413Z,8.90
2018-03-16T03:19:08.628Z,8.89
2018-03-16T03:21:34.863Z,8.92
2018-03-16T03:24:01.184Z,8.88
2018-03-16T03:26:27.429Z,8.90
2018-03-16T03:28:53.713Z,8.87
2018-03-16T03:31:19.966Z,8.78
2018-03-16T03:33:46.191Z,8.73
2018-03-16T03:36:12.561Z,8.63
2018-03-16T03:38:38.799Z,8.63
2018-03-16T03:41:05.052Z,8.58
2018-03-16T03:43:31.352Z,8.56
2018-03-16T03:45:57.568Z,8.54
2018-03-16T03:48:23.910Z,8.46
2018-03-16T03:50:50.189Z,8.43
2018-03-16T03:53:16.460Z,8.39
2018-03-16T03:55:42.883Z,8.34
2018-03-16T03:58:09.140Z,8.26
2018-03-16T04:00:35.444Z,8.29
2018-03-16T04:03:01.675Z,8.26
2018-03-16T04:05:27.908Z,8.21
2018-03-16T04:07:54.284Z,8.20
2018-03-16T04:10:20.575Z,8.21
2018-03-16T04:12:46.788Z,8.16
2018-03-16T04:15:13.241Z,8.07
2018-03-16T04:17:39.464Z,8.05
2018-03-16T04:20:05.813Z,8.05
2018-03-16T04:22:32.072Z,8.04
2018-03-16T04:24:58.337Z,8.03
2018-03-16T04:27:24.782Z,8.03
2018-03-16T04:29:51.036Z,7.94
2018-03-16T04:32:17.285Z,7.97
2018-03-16T04:34:43.529Z,7.93
2018-03-16T04:37:09.778Z,7.93
2018-03-16T04:39:36.143Z,7.88
2018-03-16T04:42:02.429Z,7.88
2018-03-16T04:44:28.648Z,7.91
2018-03-16T04:46:55.025Z,7.91
2018-03-16T04:49:21.240Z,7.89
2018-03-16T04:51:47.505Z,7.88
2018-03-16T04:54:13.744Z,7.87
2018-03-16T04:56:39.967Z,7.91
2018-03-16T04:59:06.385Z,7.89
2018-03-16T05:01:32.616Z,7.89
2018-03-16T05:03:58.883Z,7.83
2018-03-16T05:06:25.221Z,7.81
2018-03-16T05:08:51.455Z,7.82
2018-03-16T05:11:17.820Z,7.80
2018-03-16T05:13:44.087Z,7.80
2018-03-16T05:16:10.336Z,7.81
2018-03-16T05:18:36.840Z,7.77
2018-03-16T05:21:03.068Z,7.75
2018-03-16T05:23:29.280Z,7.74
2018-03-16T05:25:55.533Z,7.69
2018-03-16T05:28:21.773Z,7.65
2018-03-16T05:30:48.086Z,7.60
2018-03-16T05:33:14.372Z,7.48
2018-03-16T05:35:40.623Z,7.48
2018-03-16T05:38:07.014Z,7.51
2018-03-16T05:40:33.284Z,7.49
2018-03-16T05:42:59.541Z,7.47
2018-03-16T05:45:25.780Z,7.48
2018-03-16T05:47:52.020Z,7.42
2018-03-16T05:50:18.445Z,7.42
2018-03-16T05:52:44.695Z,7.41
2018-03-16T05:55:10.940Z,7.37
2018-03-16T05:57:37.278Z,7.40
2018-03-16T06:00:03.524Z,7.41
2018-03-16T06:02:29.845Z,7.40
2018-03-16T06:04:56.121Z,7.42
2018-03-16T06:07:22.380Z,7.47
2018-03-16T06:09:48.631Z,7.49
2018-03-16T06:12:14.884Z,7.43
2018-03-16T06:14:41.138Z,7.43
2018-03-16T06:17:07.364Z,7.42
2018-03-16T06:19:33.625Z,7.39
2018-03-16T06:21:59.847Z,7.34
2018-03-16T06:24:26.119Z,7.37
2018-03-16T06:26:52.370Z,7.48
2018-03-16T06:29:18.604Z,7.50
2018-03-16T06:31:44.816Z,7.48
2018-03-16T06:34:11.060Z,7.43
2018-03-16T06:36:37.311Z,7.41
2018-03-16T06:39:03.641Z,7.39
2018-03-16T06:41:29.880Z,7.37
2018-03-16T06:43:56.121Z,7.41
2018-03-16T06:46:22.373Z,7.43
2018-03-16T06:48:48.660Z,7.36
2018-03-16T06:51:14.925Z,7.31
2018-03-16T06:53:41.183Z,7.44
2018-03-16T06:56:07.472Z,7.48
2018-03-16T06:58:33.711Z,7.47
2018-03-16T07:00:59.987Z,7.44
2018-03-16T07:03:26.246Z,7.49
2018-03-16T07:05:52.672Z,7.51
2018-03-16T07:08:18.961Z,7.48
2018-03-16T07:10:45.208Z,7.53
2018-03-16T07:13:11.461Z,7.54
2018-03-16T07:15:37.736Z,7.58
2018-03-16T07:18:04.007Z,7.61
2018-03-16T07:20:30.260Z,7.60
2018-03-16T07:22:56.551Z,7.71
2018-03-16T07:25:22.819Z,7.68
2018-03-16T07:27:49.072Z,7.67
2018-03-16T07:30:15.343Z,7.73
2018-03-16T07:32:41.600Z,7.73
2018-03-16T07:35:07.889Z,7.68
2018-03-16T07:37:34.153Z,7.75
2018-03-16T07:40:00.414Z,7.81
2018-03-16T07:42:26.660Z,7.88
2018-03-16T07:44:52.948Z,7.86
2018-03-16T07:47:19.219Z,7.87
2018-03-16T07:49:45.452Z,7.92
2018-03-16T07:52:11.824Z,7.90
2018-03-16T07:54:38.068Z,7.90
2018-03-16T07:57:04.337Z,7.92
2018-03-16T07:59:30.604Z,7.86
2018-03-16T08:01:56.863Z,7.86
2018-03-16T08:04:23.098Z,7.87
2018-03-16T08:06:49.379Z,7.91
2018-03-16T08:09:15.664Z,7.90
2018-03-16T08:11:41.922Z,7.85
2018-03-16T08:14:08.169Z,7.85
2018-03-16T08:16:34.405Z,7.84
2018-03-16T08:19:00.688Z,7.84
2018-03-16T08:21:26.931Z,7.80
2018-03-16T08:23:53.213Z,7.83
2018-03-16T08:26:19.468Z,7.80
2018-03-16T08:28:45.763Z,7.76
2018-03-16T08:31:12.045Z,7.79
2018-03-16T08:33:38.297Z,7.83
2018-03-16T08:36:04.581Z,7.92
2018-03-16T08:38:30.839Z,7.96
2018-03-16T08:40:57.082Z,7.94
2018-03-16T08:43:23.334Z,7.87
2018-03-16T08:45:49.622Z,7.85
2018-03-16T08:48:16.342Z,7.88
2018-03-16T08:50:42.609Z,7.95
2018-03-16T08:53:08.837Z,7.91
2018-03-16T08:55:35.130Z,7.98
2018-03-16T08:58:01.421Z,8.02
2018-03-16T09:00:27.669Z,7.97
2018-03-16T09:02:53.931Z,7.93
2018-03-16T09:05:20.226Z,7.94
2018-03-16T09:07:46.472Z,8.00
2018-03-16T09:10:12.699Z,8.06
2018-03-16T09:12:38.991Z,8.12
2018-03-16T09:15:05.220Z,8.06
2018-03-16T09:17:31.460Z,7.97
2018-03-16T09:19:57.684Z,7.93
2018-03-16T09:22:23.953Z,8.01
2018-03-16T09:24:50.184Z,8.06
2018-03-16T09:27:16.473Z,8.08
2018-03-16T09:29:42.757Z,8.08
2018-03-16T09:32:08.999Z,8.13
2018-03-16T09:34:35.244Z,8.17
2018-03-16T09:37:01.473Z,8.22
2018-03-16T09:39:27.765Z,8.11
2018-03-16T09:41:54.002Z,8.08
2018-03-16T09:44:20.268Z,8.10
2018-03-16T09:46:46.492Z,8.20
2018-03-16T09:49:12.740Z,8.27
2018-03-16T09:51:38.969Z,8.18
2018-03-16T09:54:05.239Z,8.07
2018-03-16T09:56:31.464Z,7.98
2018-03-16T09:58:57.685Z,8.01
2018-03-16T10:01:23.957Z,7.99
2018-03-16T10:03:50.212Z,8.07
2018-03-16T10:06:16.540Z,8.02
2018-03-16T10:08:42.764Z,7.99
2018-03-16T10:11:09.022Z,7.91
2018-03-16T10:13:35.273Z,7.86
2018-03-16T10:16:01.524Z,7.86
2018-03-16T10:18:27.831Z,7.83
2018-03-16T10:20:54.091Z,7.79
2018-03-16T10:23:20.377Z,7.87
2018-03-16T10:25:46.617Z,7.94
2018-03-16T10:28:13.073Z,7.92
2018-03-16T10:30:39.315Z,7.88
2018-03-16T10:33:05.552Z,7.79
2018-03-16T10:35:31.801Z,7.71
2018-03-16T10:37:58.051Z,7.64
2018-03-16T10:40:24.283Z,7.65
2018-03-16T10:42:50.542Z,7.64
2018-03-16T10:45:16.811Z,7.78
2018-03-16T10:47:43.033Z,7.77
2018-03-16T10:50:09.305Z,7.79
2018-03-16T10:55:08.520Z,7.74
2018-03-16T10:57:34.756Z,7.76
2018-03-16T11:00:00.996Z,7.68
2018-03-16T11:02:33.182Z,7.66
2018-03-16T11:05:05.396Z,7.60
2018-03-16T11:10:29.736Z,7.63
2018-03-16T11:12:55.964Z,7.61
2018-03-16T11:15:22.232Z,7.55
2018-03-16T11:17:48.490Z,7.55
2018-03-16T11:20:14.752Z,7.56
2018-03-16T11:22:40.980Z,7.54
2018-03-16T11:25:07.225Z,7.56
2018-03-16T11:27:33.504Z,7.57
2018-03-16T11:29:59.796Z,7.54
2018-03-16T11:32:26.144Z,7.55
2018-03-16T11:34:52.351Z,7.61
2018-03-16T11:37:18.588Z,7.65
2018-03-16T11:39:44.832Z,7.70
2018-03-16T11:42:11.108Z,7.75
2018-03-16T11:44:43.085Z,7.77
2018-03-16T11:47:09.348Z,7.82
2018-03-16T11:49:35.652Z,7.86
2018-03-16T11:52:01.925Z,7.82
2018-03-16T11:54:28.208Z,7.86
2018-03-16T11:56:54.468Z,7.89
2018-03-16T11:59:20.775Z,7.83
2018-03-16T12:01:46.996Z,7.89
2018-03-16T12:04:13.249Z,7.83
2018-03-16T12:06:39.468Z,7.75
2018-03-16T12:09:05.777Z,7.78
2018-03-16T12:11:32.052Z,7.70
2018-03-16T12:13:58.287Z,7.68
2018-03-16T12:16:24.548Z,7.63
2018-03-16T12:18:50.781Z,7.68
2018-03-16T12:21:17.035Z,7.63
2018-03-16T12:23:43.297Z,7.66
2018-03-16T12:26:09.549Z,7.63
2018-03-16T12:28:49.573Z,7.55
2018-03-16T12:31:02.138Z,7.49
2018-03-16T12:33:28.392Z,7.42
2018-03-16T12:35:54.693Z,7.44
2018-03-16T12:38:20.968Z,7.42
2018-03-16T12:40:47.261Z,7.44
2018-03-16T12:43:13.541Z,7.48
2018-03-16T12:45:39.772Z,7.46
2018-03-16T12:48:06.084Z,7.40
2018-03-16T12:50:32.341Z,7.35
2018-03-16T12:52:58.637Z,7.42
2018-03-16T12:55:24.912Z,7.34
2018-03-16T12:57:51.176Z,7.34
2018-03-16T13:00:17.444Z,7.31
2018-03-16T13:02:43.805Z,7.23
2018-03-16T13:05:10.084Z,7.16
2018-03-16T13:07:36.320Z,7.13
2018-03-16T13:10:02.603Z,7.05
2018-03-16T13:12:28.848Z,7.06
2018-03-16T13:14:55.104Z,7.05
2018-03-16T13:17:21.324Z,7.02
2018-03-16T13:19:47.584Z,6.95
2018-03-16T13:22:13.840Z,6.98
2018-03-16T13:24:40.088Z,6.98
2018-03-16T13:27:06.307Z,6.95
2018-03-16T13:29:32.528Z,6.93
2018-03-16T13:31:58.772Z,6.99
2018-03-16T13:34:25.005Z,6.97
2018-03-16T13:36:51.264Z,6.80
2018-03-16T13:39:17.494Z,6.71
2018-03-16T13:41:43.748Z,6.75
2018-03-16T13:44:09.970Z,6.68
2018-03-16T13:46:36.233Z,6.74
2018-03-16T13:49:02.522Z,6.68
2018-03-16T13:51:28.790Z,6.59
2018-03-16T13:53:55.024Z,6.63
2018-03-16T13:56:21.923Z,6.51
2018-03-16T13:58:48.418Z,6.60
2018-03-16T14:01:14.780Z,6.62
2018-03-16T14:03:41.308Z,6.53
2018-03-16T14:06:07.592Z,6.48
2018-03-16T14:08:33.947Z,6.39
2018-03-16T14:11:00.217Z,6.36
2018-03-16T14:13:26.619Z,6.39
2018-03-16T14:15:52.968Z,6.38
2018-03-16T14:18:20.375Z,6.32
2018-03-16T14:20:46.769Z,6.32
2018-03-16T14:23:13.034Z,6.34
2018-03-16T14:25:39.572Z,6.30
2018-03-16T14:28:05.868Z,6.30
2018-03-16T14:30:32.363Z,6.22
2018-03-16T14:32:58.606Z,6.08
2018-03-16T14:35:25.098Z,5.92
2018-03-16T14:37:51.460Z,5.87
2018-03-16T14:40:17.814Z,5.85
2018-03-16T14:42:44.242Z,5.71
2018-03-16T14:45:10.552Z,5.64
2018-03-16T14:47:37.264Z,5.63
2018-03-16T14:50:06.263Z,5.64
2018-03-16T14:52:32.532Z,5.57
2018-03-16T14:54:58.811Z,5.55
2018-03-16T14:57:25.195Z,5.53
2018-03-16T14:59:51.488Z,5.52
2018-03-16T15:02:17.785Z,5.51
2018-03-16T15:04:44.407Z,5.34
2018-03-16T15:07:10.691Z,5.28
2018-03-16T15:09:36.956Z,5.21
2018-03-16T15:12:03.450Z,5.17
2018-03-16T15:14:29.867Z,5.12
2018-03-16T15:16:56.313Z,5.18
2018-03-16T15:19:22.620Z,5.24
2018-03-16T15:21:49.063Z,5.20
2018-03-16T15:24:15.360Z,5.15
2018-03-16T15:26:48.436Z,5.19
2018-03-16T15:29:15.040Z,5.26
2018-03-16T15:31:41.284Z,5.21
2018-03-16T15:34:07.551Z,5.14
2018-03-16T15:36:33.916Z,5.16
2018-03-16T15:39:00.405Z,5.07
2018-03-16T15:41:26.678Z,5.02
2018-03-16T15:43:53.058Z,4.91
2018-03-16T15:46:19.379Z,4.87
2018-03-16T15:48:45.736Z,4.79
2018-03-16T15:51:12.062Z,4.82
2018-03-16T15:53:38.321Z,4.79
2018-03-16T15:56:04.730Z,4.81
2018-03-16T15:58:30.978Z,4.73
2018-03-16T16:00:57.241Z,4.65
2018-03-16T16:03:23.895Z,4.69
2018-03-16T16:05:50.374Z,4.63
2018-03-16T16:08:16.851Z,4.61
2018-03-16T16:10:43.122Z,4.64
2018-03-16T16:13:09.639Z,4.57
2018-03-16T16:15:35.940Z,4.56
2018-03-16T16:18:02.351Z,4.57
2018-03-16T16:20:28.572Z,4.50
2018-03-16T16:22:54.784Z,4.50
2018-03-16T16:25:21.075Z,4.45
2018-03-16T16:27:47.301Z,4.44
2018-03-16T16:30:13.741Z,4.47
2018-03-16T16:32:40.152Z,4.44
2018-03-16T16:35:06.420Z,4.39
2018-03-16T16:37:32.714Z,4.28
2018-03-16T16:39:58.991Z,4.31
2018-03-16T16:42:25.340Z,4.33
2018-03-16T16:44:51.635Z,4.35
2018-03-16T16:47:18.410Z,4.30
2018-03-16T16:49:44.684Z,4.28
2018-03-16T16:52:11.014Z,4.29
2018-03-16T16:54:37.628Z,4.29
2018-03-16T16:57:03.892Z,4.28
2018-03-16T16:59:30.385Z,4.24
2018-03-16T17:01:56.745Z,4.15
2018-03-16T17:04:23.205Z,4.17
2018-03-16T17:06:49.491Z,4.00
2018-03-16T17:09:16.040Z,3.98
2018-03-16T17:11:42.529Z,3.93
2018-03-16T17:14:08.801Z,3.93
2018-03-16T17:16:35.285Z,3.87
2018-03-16T17:19:01.604Z,3.89
2018-03-16T17:21:27.917Z,3.92
2018-03-16T17:23:54.483Z,3.94
2018-03-16T17:26:20.733Z,3.91
2018-03-16T17:28:46.992Z,3.91
2018-03-16T17:31:13.231Z,3.91
2018-03-16T17:33:39.464Z,3.81
2018-03-16T17:36:05.732Z,3.77
2018-03-16T17:38:32.235Z,3.78
2018-03-16T17:40:58.528Z,3.69
2018-03-16T17:43:24.843Z,3.64
2018-03-16T17:45:51.173Z,3.56
2018-03-16T17:48:17.549Z,3.44
2018-03-16T17:50:43.926Z,3.42
2018-03-16T17:53:10.162Z,3.35
2018-03-16T17:55:36.433Z,3.29
2018-03-16T17:58:02.720Z,3.28
2018-03-16T18:00:29.037Z,3.33
2018-03-16T18:02:55.285Z,3.32
2018-03-16T18:05:21.640Z,3.25
2018-03-16T18:07:47.970Z,3.16
2018-03-16T18:10:14.487Z,3.01
2018-03-16T18:12:40.760Z,2.93
2018-03-16T18:15:07.009Z,2.88
2018-03-16T18:17:34.125Z,2.89
2018-03-16T18:20:00.411Z,2.93
2018-03-16T18:22:26.848Z,2.98
2018-03-16T18:24:53.300Z,3.01
2018-03-16T18:27:19.577Z,3.02
2018-03-16T18:29:46.225Z,3.02
2018-03-16T18:32:12.516Z,3.10
2018-03-16T18:34:38.812Z,3.09
2018-03-16T18:37:05.059Z,3.09
2018-03-16T18:39:32.016Z,3.05
2018-03-16T18:41:58.534Z,3.03
2018-03-16T18:44:24.784Z,3.00
2018-03-16T18:46:51.045Z,2.93
2018-03-16T18:49:17.488Z,2.88
2018-03-16T18:51:43.744Z,2.80
2018-03-16T18:54:10.226Z,2.80
2018-03-16T18:56:37.515Z,2.76
2018-03-16T18:59:03.840Z,2.74
2018-03-16T19:01:30.124Z,2.81
2018-03-16T19:03:56.387Z,2.82
2018-03-16T19:06:22.656Z,2.81
2018-03-16T19:08:48.906Z,2.78
2018-03-16T19:11:15.165Z,2.79
2018-03-16T19:13:41.769Z,2.76
2018-03-16T19:16:08.321Z,2.75
2018-03-16T19:18:34.704Z,2.72
2018-03-16T19:21:01.105Z,2.64
2018-03-16T19:23:27.509Z,2.62
2018-03-16T19:25:53.784Z,2.64
2018-03-16T19:28:20.253Z,2.60
2018-03-16T19:30:46.537Z,2.57
2018-03-16T19:33:12.837Z,2.58
2018-03-16T19:35:39.496Z,2.60
2018-03-16T19:38:05.827Z,2.50
2018-03-16T19:40:32.232Z,2.49
2018-03-16T19:42:58.491Z,2.47
2018-03-16T19:45:24.924Z,2.38
2018-03-16T19:47:51.176Z,2.24
2018-03-16T19:50:17.441Z,2.21
2018-03-16T19:52:44.009Z,2.26
2018-03-16T19:55:10.317Z,2.31
2018-03-16T19:57:36.632Z,2.34
2018-03-16T20:00:02.916Z,2.41
2018-03-16T20:02:29.176Z,2.42
2018-03-16T20:04:55.432Z,2.47
2018-03-16T20:07:21.752Z,2.53
2018-03-16T20:09:48.000Z,2.48
2018-03-16T20:12:14.243Z,2.43
2018-03-16T20:14:40.842Z,2.35
2018-03-16T20:17:07.333Z,2.32
2018-03-16T20:19:33.684Z,2.30
2018-03-16T20:22:00.052Z,2.33
2018-03-16T20:24:26.341Z,2.37
2018-03-16T20:26:52.605Z,2.34
2018-03-16T20:29:18.841Z,2.33
2018-03-16T20:31:45.148Z,2.35
2018-03-16T20:34:11.380Z,2.37
2018-03-16T20:36:37.648Z,2.35
2018-03-16T20:39:03.965Z,2.42
2018-03-16T20:41:30.226Z,2.44
2018-03-16T20:43:56.473Z,2.50
2018-03-16T20:46:22.732Z,2.49
2018-03-16T20:48:50.274Z,2.44
2018-03-16T20:51:16.574Z,2.51
2018-03-16T20:53:42.805Z,2.52
2018-03-16T20:56:09.071Z,2.51
2018-03-16T20:58:35.324Z,2.49
2018-03-16T21:01:01.565Z,2.47
2018-03-16T21:03:27.821Z,2.53
2018-03-16T21:08:26.914Z,2.45
2018-03-16T21:10:53.159Z,2.47
2018-03-16T21:13:19.424Z,2.46
2018-03-16T21:15:45.704Z,2.44
2018-03-16T21:18:12.225Z,2.42
2018-03-16T21:20:39.266Z,2.37
2018-03-16T21:23:05.593Z,2.35
2018-03-16T21:25:31.827Z,2.33
2018-03-16T21:27:58.334Z,2.35
2018-03-16T21:30:24.600Z,2.32
2018-03-16T21:32:51.263Z,2.28
2018-03-16T21:35:17.549Z,2.27
2018-03-16T21:37:43.803Z,2.18
2018-03-16T21:40:10.288Z,2.20
2018-03-16T21:42:36.583Z,2.19
2018-03-16T21:45:02.940Z,2.16
2018-03-16T21:47:29.333Z,2.15
2018-03-16T21:49:55.604Z,2.15
2018-03-16T21:52:21.876Z,2.14
2018-03-16T21:54:48.921Z,2.13
2018-03-16T21:57:15.568Z,2.13
2018-03-16T21:59:41.852Z,2.12
2018-03-16T22:02:08.104Z,2.11
2018-03-16T22:04:34.373Z,2.03
2018-03-16T22:07:00.628Z,2.06
2018-03-16T22:09:27.120Z,2.03
2018-03-16T22:11:53.356Z,2.06
2018-03-16T22:14:19.588Z,1.99
2018-03-16T22:16:45.844Z,1.94
2018-03-16T22:19:12.156Z,1.98
2018-03-16T22:21:38.629Z,1.96
2018-03-16T22:24:04.989Z,1.92
2018-03-16T22:26:32.093Z,1.91
2018-03-16T22:28:58.365Z,1.92
2018-03-16T22:31:24.601Z,1.93
2018-03-16T22:33:50.856Z,1.92
2018-03-16T22:36:17.104Z,1.93
2018-03-16T22:38:43.435Z,1.95
2018-03-16T22:41:09.708Z,1.96
2018-03-16T22:43:35.941Z,1.95
2018-03-16T22:46:03.302Z,1.92
2018-03-16T22:48:29.648Z,1.96
2018-03-16T22:50:56.164Z,1.97
2018-03-16T22:53:22.448Z,1.96
2018-03-16T22:55:48.672Z,1.98
2018-03-16T22:58:14.949Z,1.88
2018-03-16T23:00:41.710Z,1.92
2018-03-16T23:03:08.081Z,1.88
2018-03-16T23:05:34.652Z,1.91
2018-03-16T23:08:01.199Z,1.94
2018-03-16T23:10:27.491Z,1.93
2018-03-16T23:12:53.887Z,1.85
2018-03-16T23:15:20.144Z,1.84
2018-03-16T23:17:46.432Z,1.76
2018-03-16T23:20:12.685Z,1.80
2018-03-16T23:22:40.329Z,1.75
2018-03-16T23:25:06.591Z,1.76
2018-03-16T23:27:32.939Z,1.70
2018-03-16T23:29:59.276Z,1.70
2018-03-16T23:32:25.720Z,1.65
2018-03-16T23:34:51.992Z,1.56
2018-03-16T23:37:18.351Z,1.57
2018-03-16T23:39:44.639Z,1.62
2018-03-16T23:42:10.899Z,1.65
2018-03-16T23:44:37.559Z,1.64
2018-03-16T23:47:03.950Z,1.60
2018-03-16T23:49:30.221Z,1.57
2018-03-16T23:51:56.673Z,1.50
2018-03-16T23:54:22.956Z,1.47
2018-03-16T23:56:49.522Z,1.44
2018-03-16T23:59:15.825Z,1.41
